»·PEaware :: CFS4699 KBLI-KSEA

CFS4699 :: KBLI-KSEA

FLIGHT INFORMATION

Flight Status: Arrived
Operator: Unknown
More flights by this operator :: More flights under this callsign
Pilot: Shannon N. (33079)
Aircraft: Unknown
(K100)
More flights by this aircraft type
Origin: KBLI Bellingham Intl
United States
Destination: KSEA Seattle-Tacoma Intl
United States
More flights between these airports :: More routes between these airports
Route: KLSHN1 CVV SEA
File this flight plan on PilotEdge
Remarks: RMK / SIMBRIEF
Altitude:
(Current/Filed)
7,000ft
Speed:
(Current/Filed)
150kts
Departed: 07-Nov-23 10:31 PM
Arrived: 07-Nov-23 11:09 PM
Distance/Time
Traveled:
80nm/0:38
Distance/Time
To Go:
Arrived

Flight Plot

Page will automatically refresh every two minutes.

Flight plan parsing failed; only flown route is shown


Map Options




Map Legend


Flown Route
Filed Route
Departure Airport
Arrival Airport
Navaid (VOR, NDB)
Fix

Horizontal Profiles

Position Reports

Time Latitude Longitude Heading Altitude Ground
Speed
07-Nov-23 22:11 48.796453 -122.534477 101 170ft 0kts
07-Nov-23 22:12 48.796453 -122.534477 101 170ft 0kts
07-Nov-23 22:13 48.796453 -122.534477 101 170ft 0kts
07-Nov-23 22:14 48.796453 -122.534477 101 170ft 0kts
07-Nov-23 22:15 48.796453 -122.534477 101 170ft 0kts
07-Nov-23 22:16 48.796453 -122.534477 101 170ft 0kts
07-Nov-23 22:17 48.796453 -122.534477 101 170ft 0kts
07-Nov-23 22:18 48.796453 -122.534477 101 170ft 0kts
07-Nov-23 22:19 48.796453 -122.534477 101 170ft 0kts
07-Nov-23 22:20 48.796453 -122.534477 101 170ft 0kts
07-Nov-23 22:21 48.796453 -122.534477 101 170ft 0kts
07-Nov-23 22:22 48.796453 -122.534477 101 170ft 0kts
07-Nov-23 22:23 48.796453 -122.534477 101 170ft 0kts
07-Nov-23 22:24 48.796453 -122.534477 101 170ft 0kts
07-Nov-23 22:25 48.796453 -122.534477 101 170ft 0kts
07-Nov-23 22:26 48.796453 -122.534477 101 170ft 0kts
07-Nov-23 22:27 48.796673 -122.535235 347 170ft 9kts
07-Nov-23 22:28 48.801506 -122.535838 329 168ft 15kts
07-Nov-23 22:29 48.801705 -122.536233 290 168ft 0kts
07-Nov-23 22:29 48.801388 -122.537430 182 169ft 18kts
07-Nov-23 22:30 48.781744 -122.537928 178 470ft 111kts
07-Nov-23 22:32 48.752431 -122.544896 196 2050ft 90kts
07-Nov-23 22:33 48.728109 -122.554281 194 3218ft 94kts
07-Nov-23 22:34 48.701176 -122.564472 194 4313ft 102kts
07-Nov-23 22:34 48.677624 -122.573055 194 5259ft 106kts
07-Nov-23 22:35 48.648257 -122.583575 194 6414ft 110kts
07-Nov-23 22:36 48.614921 -122.595845 196 7013ft 152kts
07-Nov-23 22:38 48.565352 -122.613210 196 7029ft 157kts
07-Nov-23 22:38 48.529587 -122.625694 196 7034ft 160kts
07-Nov-23 22:39 48.486189 -122.640790 196 7021ft 157kts
07-Nov-23 22:40 48.443657 -122.655575 197 7028ft 157kts
07-Nov-23 22:41 48.401414 -122.670233 197 7021ft 154kts
07-Nov-23 22:43 48.352401 -122.687235 198 7018ft 154kts
07-Nov-23 22:43 48.317815 -122.699187 198 7016ft 154kts
07-Nov-23 22:44 48.275577 -122.713823 198 7021ft 157kts
07-Nov-23 22:45 48.232502 -122.718168 164 7012ft 163kts
07-Nov-23 22:46 48.189553 -122.695809 166 7018ft 166kts
07-Nov-23 22:47 48.145508 -122.672906 166 7011ft 164kts
07-Nov-23 22:48 48.102836 -122.650730 166 7009ft 159kts
07-Nov-23 22:49 48.062611 -122.625055 157 7007ft 157kts
07-Nov-23 22:50 48.024163 -122.595478 157 7012ft 154kts
07-Nov-23 22:51 47.986414 -122.566546 157 7013ft 150kts
07-Nov-23 22:52 47.949454 -122.538276 156 7016ft 150kts
07-Nov-23 22:53 47.911828 -122.509604 156 7021ft 152kts
07-Nov-23 22:54 47.874519 -122.481167 156 7018ft 148kts
07-Nov-23 22:55 47.838368 -122.453656 156 7017ft 144kts
07-Nov-23 22:56 47.803122 -122.426822 156 7016ft 140kts
07-Nov-23 22:57 47.767157 -122.399846 155 6573ft 146kts
07-Nov-23 22:58 47.733133 -122.373975 156 5854ft 138kts
07-Nov-23 23:00 47.692915 -122.343645 155 4978ft 138kts
07-Nov-23 23:00 47.664966 -122.322513 155 4402ft 131kts
07-Nov-23 23:01 47.630827 -122.310031 180 3856ft 122kts
07-Nov-23 23:02 47.597853 -122.309763 181 3208ft 114kts
07-Nov-23 23:03 47.568761 -122.310028 182 2630ft 97kts
07-Nov-23 23:04 47.541551 -122.310315 182 2094ft 99kts
07-Nov-23 23:05 47.514021 -122.310550 181 1531ft 98kts
07-Nov-23 23:06 47.487006 -122.310793 180 950ft 87kts
07-Nov-23 23:07 47.465933 -122.310921 178 462ft 62kts
07-Nov-23 23:08 47.455018 -122.310162 96 380ft 0kts
07-Nov-23 23:09 47.455519 -122.306220 23 380ft 14kts
07-Nov-23 23:10 47.459815 -122.306097 357 380ft 12kts
07-Nov-23 23:11 47.461742 -122.302224 100 380ft 16kts
07-Nov-23 23:12 47.462746 -122.298975 359 380ft 0kts
07-Nov-23 23:13 47.462746 -122.298975 359 380ft 0kts

Navigation Log

Ident Type
Flight plan parsing failed, navigation log unavailable